createdAt,value
2022-10-28T00:00:32.323Z,99539.78
2022-10-28T00:03:18.796Z,99461.09
2022-10-28T00:06:10.223Z,99515.84
2022-10-28T00:08:56.255Z,99354.00
2022-10-28T00:11:42.028Z,99444.78
2022-10-28T00:14:27.516Z,99523.53
2022-10-28T00:17:12.885Z,99464.22
2022-10-28T00:19:58.027Z,99305.88
2022-10-28T00:22:43.657Z,99501.91
2022-10-28T00:25:29.212Z,99536.22
2022-10-28T00:28:14.607Z,99342.34
2022-10-28T00:31:08.249Z,99507.75
2022-10-28T00:33:54.459Z,99331.75
2022-10-28T00:36:42.365Z,99318.53
2022-10-28T00:39:28.143Z,99441.28
2022-10-28T00:42:17.913Z,99352.84
2022-10-28T00:45:05.275Z,99311.84
2022-10-28T00:47:56.628Z,99497.91
2022-10-28T00:50:47.287Z,99296.72
2022-10-28T00:53:33.493Z,99508.94
2022-10-28T00:56:20.008Z,99498.03
2022-10-28T00:59:11.495Z,99493.00
2022-10-28T01:01:57.432Z,99348.19
2022-10-28T01:04:44.146Z,99491.50
2022-10-28T01:07:30.394Z,99494.69
2022-10-28T01:10:15.851Z,99294.94
2022-10-28T01:13:08.768Z,99348.28
2022-10-28T01:16:02.144Z,99316.56
2022-10-28T01:18:53.863Z,99506.63
2022-10-28T01:22:04.308Z,99485.09
2022-10-28T01:25:25.521Z,99285.63
2022-10-28T01:28:42.244Z,99500.13
2022-10-28T01:31:35.164Z,99280.66
2022-10-28T01:34:46.691Z,99280.19
2022-10-28T01:37:44.891Z,99297.94
2022-10-28T01:40:56.908Z,99469.13
2022-10-28T01:43:48.430Z,99468.38
2022-10-28T01:46:45.454Z,99371.81
2022-10-28T01:49:39.608Z,99368.44
2022-10-28T01:52:28.899Z,99479.41
2022-10-28T01:55:23.468Z,99426.97
2022-10-28T01:58:12.223Z,99385.41
2022-10-28T02:01:00.841Z,99406.03
2022-10-28T02:03:47.646Z,99287.88
2022-10-28T02:06:34.881Z,99457.66
2022-10-28T02:09:39.087Z,99488.94
2022-10-28T02:12:33.734Z,99467.88
2022-10-28T02:15:48.177Z,99468.91
2022-10-28T02:18:56.591Z,99461.69
2022-10-28T02:21:51.010Z,99444.91
2022-10-28T02:25:33.433Z,99465.72
2022-10-28T02:28:29.865Z,99402.53
2022-10-28T02:31:29.510Z,99292.69
2022-10-28T02:34:20.338Z,99280.56
2022-10-28T02:37:14.691Z,99249.03
2022-10-28T02:40:05.591Z,99444.78
2022-10-28T02:42:57.312Z,99257.56
2022-10-28T02:45:46.734Z,99433.38
2022-10-28T02:48:40.129Z,99249.84
2022-10-28T02:51:31.983Z,99435.78
2022-10-28T02:54:59.202Z,99436.97
2022-10-28T02:57:49.220Z,99429.84
2022-10-28T03:00:34.928Z,99340.13
2022-10-28T03:03:20.197Z,99282.38
2022-10-28T03:06:05.783Z,99437.69
2022-10-28T03:08:51.553Z,99444.91
2022-10-28T03:11:36.822Z,99349.22
2022-10-28T03:14:22.255Z,99395.97
2022-10-28T03:17:07.852Z,99431.38
2022-10-28T03:19:53.455Z,99238.44
2022-10-28T03:22:38.853Z,99457.13
2022-10-28T03:25:24.283Z,99233.31
2022-10-28T03:28:09.814Z,99431.75
2022-10-28T03:30:55.116Z,99394.25
2022-10-28T03:33:40.478Z,99442.78
2022-10-28T03:36:25.858Z,99444.69
2022-10-28T03:39:11.340Z,99259.94
2022-10-28T03:41:56.844Z,99261.44
2022-10-28T03:44:42.108Z,99441.13
2022-10-28T03:47:27.571Z,99439.88
2022-10-28T03:50:13.059Z,99222.47
2022-10-28T03:52:58.698Z,99430.53
2022-10-28T03:55:44.058Z,99427.25
2022-10-28T03:58:29.864Z,99440.53
2022-10-28T04:01:15.647Z,99363.91
2022-10-28T04:04:01.314Z,99467.63
2022-10-28T04:06:46.863Z,99238.63
2022-10-28T04:09:32.453Z,99388.94
2022-10-28T04:12:18.693Z,99268.19
2022-10-28T04:15:04.564Z,99228.94
2022-10-28T04:17:50.400Z,99246.88
2022-10-28T04:20:36.373Z,99399.75
2022-10-28T04:23:21.900Z,99438.75
2022-10-28T04:26:07.196Z,99285.25
2022-10-28T04:28:52.682Z,99403.72
2022-10-28T04:31:38.002Z,99428.59
2022-10-28T04:34:23.652Z,99292.25
2022-10-28T04:37:09.937Z,99436.34
2022-10-28T04:39:55.537Z,99439.34
2022-10-28T04:42:41.063Z,99435.31
2022-10-28T04:45:26.306Z,99246.81
2022-10-28T04:48:11.743Z,99232.09
2022-10-28T04:50:57.531Z,99395.84
2022-10-28T04:53:43.386Z,99389.88
2022-10-28T04:56:31.097Z,99229.16
2022-10-28T04:59:16.625Z,99241.94
2022-10-28T05:02:02.488Z,99353.47
2022-10-28T05:04:48.321Z,99308.03
2022-10-28T05:07:34.616Z,99435.09
2022-10-28T05:10:20.219Z,99424.88
2022-10-28T05:13:06.878Z,99420.88
2022-10-28T05:15:54.304Z,99421.91
2022-10-28T05:18:40.040Z,99307.63
2022-10-28T05:21:25.410Z,99280.91
2022-10-28T05:24:11.072Z,99370.31
2022-10-28T05:26:56.549Z,99224.88
2022-10-28T05:29:41.839Z,99212.94
2022-10-28T05:32:27.481Z,99423.44
2022-10-28T05:35:12.883Z,99354.38
2022-10-28T05:37:58.460Z,99387.38
2022-10-28T05:40:43.858Z,99367.25
2022-10-28T05:43:29.640Z,99414.41
2022-10-28T05:46:14.949Z,99353.47
2022-10-28T05:49:00.353Z,99268.56
2022-10-28T05:51:46.994Z,99208.50
2022-10-28T05:54:33.685Z,99172.28
2022-10-28T05:57:18.969Z,99359.56
2022-10-28T06:00:05.007Z,99213.53
2022-10-28T06:03:09.428Z,99408.00
2022-10-28T06:05:54.914Z,99412.25
2022-10-28T06:08:40.325Z,99382.03
2022-10-28T06:11:24.135Z,99231.63
2022-10-28T06:14:09.753Z,99406.22
2022-10-28T06:16:55.213Z,99403.22
2022-10-28T06:19:40.514Z,99260.38
2022-10-28T06:22:25.886Z,99431.31
2022-10-28T06:25:11.403Z,99415.78
2022-10-28T06:28:00.985Z,99415.72
2022-10-28T06:30:46.517Z,99411.94
2022-10-28T06:33:32.326Z,99351.84
2022-10-28T06:36:17.690Z,99226.69
2022-10-28T06:39:04.177Z,99413.09
2022-10-28T06:41:49.937Z,99394.63
2022-10-28T06:44:35.439Z,99439.38
2022-10-28T06:47:22.323Z,99398.41
2022-10-28T06:50:08.039Z,99420.84
2022-10-28T06:52:56.680Z,99254.88
2022-10-28T06:55:42.675Z,99352.81
2022-10-28T06:58:28.081Z,99348.91
2022-10-28T07:01:13.484Z,99328.47
2022-10-28T07:03:59.140Z,99399.22
2022-10-28T07:06:46.420Z,99423.53
2022-10-28T07:09:36.525Z,99336.97
2022-10-28T07:12:22.352Z,99366.16
2022-10-28T07:15:08.491Z,99355.16
2022-10-28T07:17:55.342Z,99231.44
2022-10-28T07:20:40.827Z,99211.00
2022-10-28T07:23:26.221Z,99249.94
2022-10-28T07:26:12.858Z,99332.09
2022-10-28T07:28:58.206Z,99411.19
2022-10-28T07:31:44.590Z,99423.84
2022-10-28T07:34:30.794Z,99416.84
2022-10-28T07:37:16.444Z,99446.06
2022-10-28T07:40:02.616Z,99216.56
2022-10-28T07:42:48.076Z,99416.06
2022-10-28T07:45:35.690Z,99419.81
2022-10-28T07:48:21.157Z,99366.59
2022-10-28T07:51:08.462Z,99288.63
2022-10-28T07:53:57.023Z,99388.50
2022-10-28T07:56:42.763Z,99380.91
2022-10-28T07:59:28.115Z,99238.13
2022-10-28T08:02:19.439Z,99417.94
2022-10-28T08:05:05.531Z,99395.22
2022-10-28T08:07:50.864Z,99257.53
2022-10-28T08:10:36.722Z,99421.59
2022-10-28T08:13:22.157Z,99427.13
2022-10-28T08:16:08.275Z,99237.69
2022-10-28T08:18:53.830Z,99398.22
2022-10-28T08:21:39.374Z,99329.28
2022-10-28T08:24:24.963Z,99394.38
2022-10-28T08:27:10.341Z,99242.56
2022-10-28T08:29:55.639Z,99280.63
2022-10-28T08:32:41.128Z,99231.69
2022-10-28T08:35:26.516Z,99402.72
2022-10-28T08:38:11.940Z,99412.75
2022-10-28T08:41:19.100Z,99430.28
2022-10-28T08:44:13.654Z,99397.31
2022-10-28T08:47:16.358Z,99248.81
2022-10-28T08:50:12.146Z,99318.81
2022-10-28T08:53:14.638Z,99383.94
2022-10-28T08:56:14.344Z,99401.13
2022-10-28T08:59:03.887Z,99311.44
2022-10-28T09:01:57.356Z,99379.41
2022-10-28T09:04:45.036Z,99393.97
2022-10-28T09:07:34.043Z,99367.16
2022-10-28T09:11:06.172Z,99384.84
2022-10-28T09:14:13.037Z,99218.22
2022-10-28T09:17:20.187Z,99242.81
2022-10-28T09:20:18.311Z,99375.00
2022-10-28T09:23:24.137Z,99406.84
2022-10-28T09:26:15.909Z,99391.34
2022-10-28T09:29:11.905Z,99409.13
2022-10-28T09:32:09.517Z,99403.22
2022-10-28T09:35:06.401Z,99231.66
2022-10-28T09:37:59.865Z,99242.56
2022-10-28T09:40:51.256Z,99365.09
2022-10-28T09:43:44.155Z,99311.41
2022-10-28T09:46:34.584Z,99337.69
2022-10-28T09:49:27.919Z,99370.28
2022-10-28T09:52:22.714Z,99312.50
2022-10-28T09:55:19.452Z,99370.63
2022-10-28T09:58:05.498Z,99384.25
2022-10-28T10:00:51.079Z,99366.47
2022-10-28T10:03:36.383Z,99222.19
2022-10-28T10:06:32.263Z,99362.66
2022-10-28T10:09:25.480Z,99322.31
2022-10-28T10:12:13.400Z,99321.50
2022-10-28T10:14:59.962Z,99375.31
2022-10-28T10:17:47.663Z,99341.81
2022-10-28T10:20:48.457Z,99347.56
2022-10-28T10:23:36.896Z,99310.16
2022-10-28T10:26:22.961Z,99224.81
2022-10-28T10:29:13.170Z,99309.63
2022-10-28T10:32:13.491Z,99204.28
2022-10-28T10:35:37.730Z,99279.00
2022-10-28T10:38:23.727Z,99337.34
2022-10-28T10:41:09.103Z,99339.91
2022-10-28T10:43:54.349Z,99224.94
2022-10-28T10:46:39.751Z,99135.16
2022-10-28T10:49:26.008Z,99169.38
2022-10-28T10:52:21.130Z,99176.56
2022-10-28T10:55:17.705Z,99312.19
2022-10-28T10:58:05.407Z,99242.03
2022-10-28T11:00:53.587Z,99316.59
2022-10-28T11:03:47.427Z,99260.84
2022-10-28T11:06:38.352Z,99296.84
2022-10-28T11:09:27.051Z,99285.88
2022-10-28T11:12:28.362Z,99281.81
2022-10-28T11:15:18.305Z,99281.13
2022-10-28T11:18:22.281Z,99166.81
2022-10-28T11:21:31.584Z,99283.53
2022-10-28T11:24:35.732Z,99283.72
2022-10-28T11:27:48.593Z,99267.97
2022-10-28T11:30:51.502Z,99273.44
2022-10-28T11:34:02.482Z,99260.66
2022-10-28T11:37:10.209Z,99281.44
2022-10-28T11:40:05.289Z,99265.09
2022-10-28T11:42:59.885Z,99252.03
2022-10-28T11:45:51.768Z,99231.44
2022-10-28T11:49:17.867Z,99247.50
2022-10-28T11:52:03.959Z,99102.81
2022-10-28T11:54:57.396Z,99092.69
2022-10-28T11:58:33.820Z,98989.00
2022-10-28T12:01:40.396Z,99214.22
2022-10-28T12:04:58.754Z,99160.22
2022-10-28T12:07:50.165Z,99245.25
2022-10-28T12:11:03.989Z,99234.75
2022-10-28T12:14:13.626Z,99175.50
2022-10-28T12:17:40.606Z,99222.19
2022-10-28T12:20:56.679Z,99063.88
2022-10-28T12:23:43.897Z,99144.53
2022-10-28T12:26:38.466Z,99219.75
2022-10-28T12:29:35.091Z,99054.59
2022-10-28T12:32:31.905Z,99058.22
2022-10-28T12:35:36.803Z,99183.88
2022-10-28T12:38:26.095Z,99206.88
2022-10-28T12:41:17.678Z,99050.97
2022-10-28T12:44:10.051Z,99091.63
2022-10-28T12:47:21.148Z,99200.47
2022-10-28T12:50:19.421Z,99215.22
2022-10-28T12:53:05.428Z,99204.91
2022-10-28T12:55:53.622Z,99168.31
2022-10-28T12:58:58.270Z,99120.81
2022-10-28T13:01:48.231Z,99096.75
2022-10-28T13:04:33.714Z,99188.84
2022-10-28T13:07:45.104Z,99197.16
2022-10-28T13:10:43.005Z,99188.59
2022-10-28T13:13:46.964Z,99183.66
2022-10-28T13:16:35.640Z,99209.25
2022-10-28T13:19:43.282Z,99035.44
2022-10-28T13:22:46.008Z,99187.91
2022-10-28T13:25:50.504Z,99189.97
2022-10-28T13:28:44.891Z,99180.44
2022-10-28T13:31:44.293Z,99195.28
2022-10-28T13:34:35.075Z,99045.91
2022-10-28T13:37:23.457Z,99185.63
2022-10-28T13:40:23.380Z,99055.72
2022-10-28T13:43:49.927Z,99191.47
2022-10-28T13:47:13.166Z,99184.28
2022-10-28T13:50:08.497Z,99206.38
2022-10-28T13:53:28.635Z,99185.19
2022-10-28T13:56:28.463Z,99123.19
2022-10-28T13:59:30.941Z,99106.34
2022-10-28T14:02:35.029Z,99167.56
2022-10-28T14:05:44.577Z,99189.34
2022-10-28T14:08:38.666Z,99182.88
2022-10-28T14:11:28.651Z,99151.41
2022-10-28T14:14:17.235Z,99179.19
2022-10-28T14:17:03.837Z,99153.81
2022-10-28T14:19:53.992Z,99154.81
2022-10-28T14:22:39.822Z,99175.25
2022-10-28T14:25:40.384Z,99177.16
2022-10-28T14:28:29.078Z,99089.72
2022-10-28T14:31:20.880Z,99165.28
2022-10-28T14:34:12.572Z,99196.34
2022-10-28T14:37:32.500Z,99170.31
2022-10-28T14:40:36.128Z,99125.34
2022-10-28T14:44:12.232Z,99170.94
2022-10-28T14:47:16.007Z,99154.75
2022-10-28T14:50:03.447Z,99172.44
2022-10-28T14:52:50.958Z,99142.41
2022-10-28T14:55:36.785Z,99111.09
2022-10-28T14:58:24.670Z,99165.38
2022-10-28T15:01:16.784Z,99145.06
2022-10-28T15:04:04.618Z,99060.66
2022-10-28T15:06:52.042Z,99011.56
2022-10-28T15:09:39.894Z,99128.28
2022-10-28T15:12:26.951Z,99125.78
2022-10-28T15:15:21.679Z,98974.13
2022-10-28T15:18:21.975Z,98985.72
2022-10-28T15:21:20.763Z,99072.13
2022-10-28T15:24:13.639Z,99103.00
2022-10-28T15:26:59.933Z,99140.06
2022-10-28T15:29:45.814Z,99118.28
2022-10-28T15:32:34.779Z,99132.84
2022-10-28T15:35:35.633Z,99153.72
2022-10-28T15:38:21.199Z,99132.69
2022-10-28T15:41:29.947Z,99123.13
2022-10-28T15:44:51.117Z,99131.50
2022-10-28T15:47:37.491Z,99085.91
2022-10-28T15:50:30.065Z,99094.75
2022-10-28T15:53:33.221Z,99153.13
2022-10-28T15:56:21.631Z,99102.09
2022-10-28T15:59:24.982Z,99121.22
2022-10-28T16:02:49.783Z,99126.06
2022-10-28T16:05:35.577Z,99122.22
2022-10-28T16:08:21.276Z,99137.34
2022-10-28T16:11:16.129Z,99115.72
2022-10-28T16:14:07.481Z,99101.88
2022-10-28T16:16:52.767Z,99091.72
2022-10-28T16:19:42.224Z,99006.75
2022-10-28T16:22:30.692Z,99103.28
2022-10-28T16:25:21.250Z,98990.84
2022-10-28T16:28:17.115Z,99135.09
2022-10-28T16:31:03.311Z,99142.59
2022-10-28T16:33:49.028Z,99129.31
2022-10-28T16:36:34.277Z,99146.06
2022-10-28T16:39:19.795Z,98950.19
2022-10-28T16:42:05.289Z,99139.41
2022-10-28T16:44:58.218Z,99138.91
2022-10-28T16:47:46.281Z,99131.34
2022-10-28T16:50:31.666Z,99070.25
2022-10-28T16:53:18.338Z,99140.28
2022-10-28T16:56:04.134Z,99101.22
2022-10-28T16:58:50.226Z,99107.34
2022-10-28T17:01:35.876Z,99140.63
2022-10-28T17:04:37.224Z,99074.75
2022-10-28T17:07:32.467Z,99142.75
2022-10-28T17:10:19.957Z,99149.41
2022-10-28T17:13:08.081Z,99134.34
2022-10-28T17:15:54.052Z,99141.50
2022-10-28T17:18:39.647Z,99105.78
2022-10-28T17:21:25.985Z,99141.59
2022-10-28T17:24:12.533Z,99134.53
2022-10-28T17:26:58.294Z,99100.31
2022-10-28T17:29:43.730Z,98994.97
2022-10-28T17:32:29.093Z,98956.50
2022-10-28T17:35:14.985Z,98954.31
2022-10-28T17:38:00.897Z,99115.91
2022-10-28T17:40:55.082Z,99134.00
2022-10-28T17:43:40.805Z,98971.78
2022-10-28T17:46:26.345Z,99094.28
2022-10-28T17:49:11.940Z,99127.53
2022-10-28T17:51:57.351Z,99128.31
2022-10-28T17:54:42.833Z,99132.06
2022-10-28T17:57:28.158Z,99133.56
2022-10-28T18:00:14.494Z,99143.56
2022-10-28T18:03:00.461Z,99128.31
2022-10-28T18:05:45.978Z,99115.38
2022-10-28T18:08:37.245Z,99084.41
2022-10-28T18:11:23.062Z,99102.50
2022-10-28T18:14:08.360Z,98977.66
2022-10-28T18:16:53.944Z,99067.91
2022-10-28T18:19:39.286Z,98974.22
2022-10-28T18:25:11.853Z,99122.09
2022-10-28T18:27:57.449Z,99058.81
2022-10-28T18:30:42.992Z,98949.50
2022-10-28T18:33:32.407Z,99098.41
2022-10-28T18:36:21.325Z,98823.81
2022-10-28T18:39:07.898Z,99113.84
2022-10-28T18:41:53.500Z,99119.59
2022-10-28T18:44:38.950Z,98956.16
2022-10-28T18:47:26.254Z,99125.09
2022-10-28T18:50:12.247Z,99153.66
2022-10-28T18:52:57.931Z,99121.41
2022-10-28T18:55:43.838Z,99113.28
2022-10-28T18:58:29.505Z,99126.97
2022-10-28T19:01:17.485Z,99098.41
2022-10-28T19:04:05.241Z,98956.91
2022-10-28T19:06:50.931Z,99047.69
2022-10-28T19:09:36.283Z,99086.44
2022-10-28T19:12:21.878Z,99107.28
2022-10-28T19:15:07.978Z,99133.75
2022-10-28T19:17:54.036Z,99040.41
2022-10-28T19:20:39.675Z,99134.53
2022-10-28T19:23:25.043Z,99151.66
2022-10-28T19:26:11.760Z,99148.84
2022-10-28T19:28:57.555Z,99144.47
2022-10-28T19:31:43.566Z,99088.69
2022-10-28T19:34:29.443Z,99121.75
2022-10-28T19:37:15.100Z,99121.75
2022-10-28T19:40:00.525Z,99008.47
2022-10-28T19:42:46.892Z,99141.03
2022-10-28T19:45:32.252Z,99165.84
2022-10-28T19:48:17.914Z,99142.88
2022-10-28T19:51:04.215Z,99087.66
2022-10-28T19:53:53.840Z,99139.19
2022-10-28T19:56:39.523Z,99156.78
2022-10-28T19:59:25.364Z,99106.53
2022-10-28T20:02:11.693Z,99067.25
2022-10-28T20:04:57.483Z,98959.44
2022-10-28T20:07:44.648Z,99089.03
2022-10-28T20:10:29.946Z,99131.38
2022-10-28T20:13:15.348Z,99128.22
2022-10-28T20:16:03.308Z,99003.75
2022-10-28T20:18:48.949Z,98994.53
2022-10-28T20:21:35.279Z,99154.88
2022-10-28T20:24:20.983Z,99046.25
2022-10-28T20:27:07.378Z,99147.50
2022-10-28T20:29:53.095Z,99163.59
2022-10-28T20:32:38.458Z,98989.34
2022-10-28T20:35:23.617Z,98999.72
2022-10-28T20:38:08.994Z,98992.28
2022-10-28T20:40:57.165Z,99073.41
2022-10-28T20:43:42.527Z,99099.84
2022-10-28T20:46:28.508Z,99126.63
2022-10-28T20:49:14.994Z,99176.94
2022-10-28T20:52:01.049Z,98999.31
2022-10-28T20:54:46.562Z,98971.97
2022-10-28T20:57:32.130Z,98968.09
2022-10-28T21:00:18.003Z,99007.06
2022-10-28T21:03:04.023Z,99117.97
2022-10-28T21:05:49.572Z,98956.09
2022-10-28T21:08:35.942Z,99089.88
2022-10-28T21:11:23.452Z,99065.63
2022-10-28T21:14:09.563Z,99110.75
2022-10-28T21:16:55.182Z,99086.53
2022-10-28T21:19:43.254Z,99114.63
2022-10-28T21:22:28.388Z,99101.31
2022-10-28T21:25:14.255Z,99096.91
2022-10-28T21:28:00.544Z,99113.16
2022-10-28T21:30:45.896Z,99037.22
2022-10-28T21:33:32.588Z,98946.13
2022-10-28T21:36:20.356Z,99019.66
2022-10-28T21:39:06.127Z,99033.09
2022-10-28T21:41:51.573Z,99129.63
2022-10-28T21:44:36.866Z,98902.72
2022-10-28T21:47:22.540Z,99088.75
2022-10-28T21:50:08.248Z,99073.94
2022-10-28T21:55:49.108Z,99070.59
2022-10-28T21:58:37.223Z,99109.59
2022-10-28T22:01:24.731Z,99114.63
2022-10-28T22:04:10.848Z,99040.97
2022-10-28T22:06:56.134Z,99077.59
2022-10-28T22:09:41.662Z,98900.72
2022-10-28T22:12:26.796Z,99018.47
2022-10-28T22:15:12.436Z,99057.66
2022-10-28T22:17:57.869Z,99070.22
2022-10-28T22:20:43.644Z,98924.19
2022-10-28T22:23:29.066Z,99067.97
2022-10-28T22:30:58.185Z,98914.78
2022-10-28T22:33:44.351Z,99131.91
2022-10-28T22:36:30.053Z,98920.50
2022-10-28T22:39:15.662Z,99101.63
2022-10-28T22:42:02.043Z,99087.19
2022-10-28T22:44:47.292Z,99111.25
2022-10-28T22:47:32.748Z,99080.97
2022-10-28T22:50:18.170Z,99085.75
2022-10-28T22:53:03.275Z,98908.38
2022-10-28T22:55:48.935Z,99112.22
2022-10-28T22:58:35.015Z,98930.56
2022-10-28T23:01:21.931Z,98892.50
2022-10-28T23:04:11.872Z,99043.63
2022-10-28T23:06:57.222Z,99058.97
2022-10-28T23:09:42.461Z,98847.03
2022-10-28T23:12:27.874Z,99070.97
2022-10-28T23:15:13.234Z,99069.47
2022-10-28T23:17:58.774Z,98899.13
2022-10-28T23:20:44.238Z,99026.97
2022-10-28T23:23:29.602Z,99062.63
2022-10-28T23:26:18.250Z,98945.63
2022-10-28T23:29:03.831Z,99076.28
2022-10-28T23:31:49.210Z,99096.41
2022-10-28T23:34:34.683Z,98990.63
2022-10-28T23:37:19.963Z,99065.38
2022-10-28T23:40:05.761Z,98980.09
2022-10-28T23:42:51.102Z,98919.53
2022-10-28T23:45:36.509Z,98977.38
2022-10-28T23:48:22.178Z,99057.25
2022-10-28T23:51:08.266Z,99046.31
2022-10-28T23:53:53.887Z,98869.25
2022-10-28T23:56:39.240Z,98866.13
2022-10-28T23:59:24.731Z,99085.25
